sensor_id;sensor_type;location;lat;lon;timestamp;P1;durP1;ratioP1;P2;durP2;ratioP2
8260;SDS011;64115;50.170;8.242;2022-12-18T00:01:58;15.23;;;9.17;;
8260;SDS011;64115;50.170;8.242;2022-12-18T00:04:26;16.17;;;9.00;;
8260;SDS011;64115;50.170;8.242;2022-12-18T00:06:53;18.27;;;9.43;;
8260;SDS011;64115;50.170;8.242;2022-12-18T00:09:20;18.73;;;10.13;;
8260;SDS011;64115;50.170;8.242;2022-12-18T00:11:48;16.67;;;10.00;;
8260;SDS011;64115;50.170;8.242;2022-12-18T00:14:15;16.93;;;9.23;;
8260;SDS011;64115;50.170;8.242;2022-12-18T00:16:43;18.63;;;9.50;;
8260;SDS011;64115;50.170;8.242;2022-12-18T00:19:10;15.73;;;9.47;;
8260;SDS011;64115;50.170;8.242;2022-12-18T00:21:39;14.53;;;9.90;;
8260;SDS011;64115;50.170;8.242;2022-12-18T00:24:06;17.43;;;10.13;;
8260;SDS011;64115;50.170;8.242;2022-12-18T00:26:35;19.60;;;11.17;;
8260;SDS011;64115;50.170;8.242;2022-12-18T00:29:04;19.97;;;11.30;;
8260;SDS011;64115;50.170;8.242;2022-12-18T00:31:33;23.70;;;11.30;;
8260;SDS011;64115;50.170;8.242;2022-12-18T00:34:00;17.40;;;9.60;;
8260;SDS011;64115;50.170;8.242;2022-12-18T00:36:28;17.77;;;10.33;;
8260;SDS011;64115;50.170;8.242;2022-12-18T00:38:56;22.03;;;12.23;;
8260;SDS011;64115;50.170;8.242;2022-12-18T00:41:24;25.37;;;13.17;;
8260;SDS011;64115;50.170;8.242;2022-12-18T00:44:11;22.40;;;11.97;;
8260;SDS011;64115;50.170;8.242;2022-12-18T00:46:39;24.27;;;12.93;;
8260;SDS011;64115;50.170;8.242;2022-12-18T00:49:06;21.90;;;12.83;;
8260;SDS011;64115;50.170;8.242;2022-12-18T00:51:33;22.83;;;13.23;;
8260;SDS011;64115;50.170;8.242;2022-12-18T00:54:00;22.53;;;12.90;;
8260;SDS011;64115;50.170;8.242;2022-12-18T00:56:27;24.03;;;12.90;;
8260;SDS011;64115;50.170;8.242;2022-12-18T00:58:54;23.17;;;13.47;;
8260;SDS011;64115;50.170;8.242;2022-12-18T01:01:22;24.17;;;13.57;;
8260;SDS011;64115;50.170;8.242;2022-12-18T01:03:49;23.00;;;11.90;;
8260;SDS011;64115;50.170;8.242;2022-12-18T01:06:16;23.20;;;11.20;;
8260;SDS011;64115;50.170;8.242;2022-12-18T01:08:43;23.77;;;12.40;;
8260;SDS011;64115;50.170;8.242;2022-12-18T01:11:11;26.63;;;13.07;;
8260;SDS011;64115;50.170;8.242;2022-12-18T01:13:39;25.93;;;12.83;;
8260;SDS011;64115;50.170;8.242;2022-12-18T01:16:07;20.40;;;11.40;;
8260;SDS011;64115;50.170;8.242;2022-12-18T01:18:35;19.67;;;10.57;;
8260;SDS011;64115;50.170;8.242;2022-12-18T01:21:05;23.70;;;11.53;;
8260;SDS011;64115;50.170;8.242;2022-12-18T01:23:33;21.07;;;11.87;;
8260;SDS011;64115;50.170;8.242;2022-12-18T01:26:03;20.93;;;10.07;;
8260;SDS011;64115;50.170;8.242;2022-12-18T01:28:31;20.87;;;11.50;;
8260;SDS011;64115;50.170;8.242;2022-12-18T01:31:08;23.53;;;12.97;;
8260;SDS011;64115;50.170;8.242;2022-12-18T01:33:38;24.60;;;12.80;;
8260;SDS011;64115;50.170;8.242;2022-12-18T01:36:05;20.57;;;11.40;;
8260;SDS011;64115;50.170;8.242;2022-12-18T01:38:32;21.63;;;11.97;;
8260;SDS011;64115;50.170;8.242;2022-12-18T01:40:59;26.70;;;12.37;;
8260;SDS011;64115;50.170;8.242;2022-12-18T01:43:40;21.17;;;11.40;;
8260;SDS011;64115;50.170;8.242;2022-12-18T01:46:11;23.00;;;11.53;;
8260;SDS011;64115;50.170;8.242;2022-12-18T01:48:39;16.77;;;9.97;;
8260;SDS011;64115;50.170;8.242;2022-12-18T01:51:07;16.53;;;9.33;;
8260;SDS011;64115;50.170;8.242;2022-12-18T01:53:36;20.93;;;10.83;;
8260;SDS011;64115;50.170;8.242;2022-12-18T01:56:05;18.50;;;10.73;;
8260;SDS011;64115;50.170;8.242;2022-12-18T01:58:34;21.03;;;10.57;;
8260;SDS011;64115;50.170;8.242;2022-12-18T02:01:06;18.97;;;10.03;;
8260;SDS011;64115;50.170;8.242;2022-12-18T02:03:34;12.63;;;8.53;;
8260;SDS011;64115;50.170;8.242;2022-12-18T02:06:03;15.27;;;8.60;;
8260;SDS011;64115;50.170;8.242;2022-12-18T02:08:37;19.67;;;11.07;;
8260;SDS011;64115;50.170;8.242;2022-12-18T02:11:13;15.53;;;9.50;;
8260;SDS011;64115;50.170;8.242;2022-12-18T02:13:50;12.23;;;8.07;;
8260;SDS011;64115;50.170;8.242;2022-12-18T02:16:24;20.13;;;10.17;;
8260;SDS011;64115;50.170;8.242;2022-12-18T02:18:56;16.30;;;8.67;;
8260;SDS011;64115;50.170;8.242;2022-12-18T02:21:31;21.37;;;10.27;;
8260;SDS011;64115;50.170;8.242;2022-12-18T02:24:11;20.43;;;10.47;;
8260;SDS011;64115;50.170;8.242;2022-12-18T02:26:46;17.57;;;9.60;;
8260;SDS011;64115;50.170;8.242;2022-12-18T02:29:16;24.90;;;10.80;;
8260;SDS011;64115;50.170;8.242;2022-12-18T02:31:49;16.17;;;8.20;;
8260;SDS011;64115;50.170;8.242;2022-12-18T02:34:18;13.33;;;8.47;;
8260;SDS011;64115;50.170;8.242;2022-12-18T02:36:47;18.87;;;10.67;;
8260;SDS011;64115;50.170;8.242;2022-12-18T02:39:16;12.50;;;8.37;;
8260;SDS011;64115;50.170;8.242;2022-12-18T02:41:45;12.13;;;7.70;;
8260;SDS011;64115;50.170;8.242;2022-12-18T02:44:14;19.07;;;9.33;;
8260;SDS011;64115;50.170;8.242;2022-12-18T02:46:41;19.20;;;9.60;;
8260;SDS011;64115;50.170;8.242;2022-12-18T02:49:12;10.93;;;7.37;;
8260;SDS011;64115;50.170;8.242;2022-12-18T02:51:50;13.70;;;7.50;;
8260;SDS011;64115;50.170;8.242;2022-12-18T02:54:36;17.07;;;8.93;;
8260;SDS011;64115;50.170;8.242;2022-12-18T02:57:20;23.77;;;12.27;;
8260;SDS011;64115;50.170;8.242;2022-12-18T02:59:56;20.90;;;10.40;;
8260;SDS011;64115;50.170;8.242;2022-12-18T03:02:29;10.70;;;6.73;;
8260;SDS011;64115;50.170;8.242;2022-12-18T03:05:05;20.07;;;10.53;;
8260;SDS011;64115;50.170;8.242;2022-12-18T03:07:38;20.60;;;9.33;;
8260;SDS011;64115;50.170;8.242;2022-12-18T03:10:11;18.13;;;11.03;;
8260;SDS011;64115;50.170;8.242;2022-12-18T03:12:42;21.27;;;11.17;;
8260;SDS011;64115;50.170;8.242;2022-12-18T03:15:14;17.67;;;9.60;;
8260;SDS011;64115;50.170;8.242;2022-12-18T03:17:46;15.40;;;8.37;;
8260;SDS011;64115;50.170;8.242;2022-12-18T03:20:17;12.57;;;8.17;;
8260;SDS011;64115;50.170;8.242;2022-12-18T03:22:49;20.87;;;11.27;;
8260;SDS011;64115;50.170;8.242;2022-12-18T03:25:20;18.40;;;10.13;;
8260;SDS011;64115;50.170;8.242;2022-12-18T03:27:51;19.03;;;8.03;;
8260;SDS011;64115;50.170;8.242;2022-12-18T03:30:22;20.27;;;10.37;;
8260;SDS011;64115;50.170;8.242;2022-12-18T03:32:52;18.37;;;8.80;;
8260;SDS011;64115;50.170;8.242;2022-12-18T03:35:26;15.13;;;9.10;;
8260;SDS011;64115;50.170;8.242;2022-12-18T03:37:56;14.23;;;8.00;;
8260;SDS011;64115;50.170;8.242;2022-12-18T03:40:25;13.93;;;8.20;;
8260;SDS011;64115;50.170;8.242;2022-12-18T03:42:58;17.57;;;8.97;;
8260;SDS011;64115;50.170;8.242;2022-12-18T03:45:31;18.50;;;8.90;;
8260;SDS011;64115;50.170;8.242;2022-12-18T03:48:01;18.73;;;8.83;;
8260;SDS011;64115;50.170;8.242;2022-12-18T03:50:36;19.00;;;10.30;;
8260;SDS011;64115;50.170;8.242;2022-12-18T03:53:14;6.00;;;4.80;;
8260;SDS011;64115;50.170;8.242;2022-12-18T03:55:47;12.60;;;8.07;;
8260;SDS011;64115;50.170;8.242;2022-12-18T03:58:17;23.53;;;10.73;;
8260;SDS011;64115;50.170;8.242;2022-12-18T04:00:46;21.50;;;11.33;;
8260;SDS011;64115;50.170;8.242;2022-12-18T04:03:16;18.50;;;10.33;;
8260;SDS011;64115;50.170;8.242;2022-12-18T04:05:45;17.23;;;9.97;;
8260;SDS011;64115;50.170;8.242;2022-12-18T04:08:13;14.43;;;8.60;;
8260;SDS011;64115;50.170;8.242;2022-12-18T04:10:41;16.63;;;8.93;;
8260;SDS011;64115;50.170;8.242;2022-12-18T04:13:08;8.93;;;6.17;;
8260;SDS011;64115;50.170;8.242;2022-12-18T04:15:37;17.27;;;9.83;;
8260;SDS011;64115;50.170;8.242;2022-12-18T04:18:04;13.13;;;8.10;;
8260;SDS011;64115;50.170;8.242;2022-12-18T04:20:31;13.97;;;7.27;;
8260;SDS011;64115;50.170;8.242;2022-12-18T04:22:58;16.57;;;7.80;;
8260;SDS011;64115;50.170;8.242;2022-12-18T04:25:25;18.90;;;10.40;;
8260;SDS011;64115;50.170;8.242;2022-12-18T04:27:52;17.97;;;10.43;;
8260;SDS011;64115;50.170;8.242;2022-12-18T04:30:18;18.63;;;9.03;;
8260;SDS011;64115;50.170;8.242;2022-12-18T04:32:46;13.93;;;9.03;;
8260;SDS011;64115;50.170;8.242;2022-12-18T04:35:13;18.17;;;8.90;;
8260;SDS011;64115;50.170;8.242;2022-12-18T04:37:40;16.73;;;9.70;;
8260;SDS011;64115;50.170;8.242;2022-12-18T04:40:08;13.67;;;7.50;;
8260;SDS011;64115;50.170;8.242;2022-12-18T04:42:35;13.00;;;6.50;;
8260;SDS011;64115;50.170;8.242;2022-12-18T04:45:02;14.77;;;8.50;;
8260;SDS011;64115;50.170;8.242;2022-12-18T04:47:30;19.40;;;9.67;;
8260;SDS011;64115;50.170;8.242;2022-12-18T04:49:58;17.13;;;8.87;;
8260;SDS011;64115;50.170;8.242;2022-12-18T04:52:25;16.97;;;8.80;;
8260;SDS011;64115;50.170;8.242;2022-12-18T04:54:52;11.50;;;7.23;;
8260;SDS011;64115;50.170;8.242;2022-12-18T04:57:19;12.53;;;7.33;;
8260;SDS011;64115;50.170;8.242;2022-12-18T04:59:46;13.77;;;8.63;;
8260;SDS011;64115;50.170;8.242;2022-12-18T05:02:12;11.93;;;7.97;;
8260;SDS011;64115;50.170;8.242;2022-12-18T05:04:39;12.37;;;7.27;;
8260;SDS011;64115;50.170;8.242;2022-12-18T05:07:07;18.73;;;8.23;;
8260;SDS011;64115;50.170;8.242;2022-12-18T05:09:34;15.70;;;7.83;;
8260;SDS011;64115;50.170;8.242;2022-12-18T05:12:01;18.60;;;10.23;;
8260;SDS011;64115;50.170;8.242;2022-12-18T05:14:28;12.70;;;6.93;;
8260;SDS011;64115;50.170;8.242;2022-12-18T05:16:54;16.27;;;8.80;;
8260;SDS011;64115;50.170;8.242;2022-12-18T05:19:21;14.43;;;8.90;;
8260;SDS011;64115;50.170;8.242;2022-12-18T05:21:48;13.80;;;8.03;;
8260;SDS011;64115;50.170;8.242;2022-12-18T05:24:16;15.23;;;8.03;;
8260;SDS011;64115;50.170;8.242;2022-12-18T05:26:43;11.97;;;6.30;;
8260;SDS011;64115;50.170;8.242;2022-12-18T05:29:10;11.57;;;6.53;;
8260;SDS011;64115;50.170;8.242;2022-12-18T05:31:37;15.97;;;8.03;;
8260;SDS011;64115;50.170;8.242;2022-12-18T05:34:04;13.27;;;7.13;;
8260;SDS011;64115;50.170;8.242;2022-12-18T05:36:31;11.63;;;6.83;;
8260;SDS011;64115;50.170;8.242;2022-12-18T05:38:58;10.63;;;7.23;;
8260;SDS011;64115;50.170;8.242;2022-12-18T05:41:26;11.53;;;7.47;;
8260;SDS011;64115;50.170;8.242;2022-12-18T05:43:53;14.00;;;8.47;;
8260;SDS011;64115;50.170;8.242;2022-12-18T05:46:20;13.87;;;7.30;;
8260;SDS011;64115;50.170;8.242;2022-12-18T05:48:47;10.70;;;6.77;;
8260;SDS011;64115;50.170;8.242;2022-12-18T05:51:16;15.37;;;9.10;;
8260;SDS011;64115;50.170;8.242;2022-12-18T05:53:46;9.20;;;6.43;;
8260;SDS011;64115;50.170;8.242;2022-12-18T05:56:14;11.53;;;6.03;;
8260;SDS011;64115;50.170;8.242;2022-12-18T05:58:43;7.73;;;4.70;;
8260;SDS011;64115;50.170;8.242;2022-12-18T06:01:11;12.47;;;7.47;;
8260;SDS011;64115;50.170;8.242;2022-12-18T06:03:41;10.90;;;7.00;;
8260;SDS011;64115;50.170;8.242;2022-12-18T06:06:14;11.20;;;8.00;;
8260;SDS011;64115;50.170;8.242;2022-12-18T06:08:42;13.13;;;6.73;;
8260;SDS011;64115;50.170;8.242;2022-12-18T06:11:10;18.17;;;9.47;;
8260;SDS011;64115;50.170;8.242;2022-12-18T06:13:37;14.47;;;8.73;;
8260;SDS011;64115;50.170;8.242;2022-12-18T06:16:05;8.93;;;4.83;;
8260;SDS011;64115;50.170;8.242;2022-12-18T06:18:33;12.90;;;6.80;;
8260;SDS011;64115;50.170;8.242;2022-12-18T06:21:02;15.93;;;8.50;;
8260;SDS011;64115;50.170;8.242;2022-12-18T06:23:29;12.97;;;7.40;;
8260;SDS011;64115;50.170;8.242;2022-12-18T06:25:56;11.27;;;7.67;;
8260;SDS011;64115;50.170;8.242;2022-12-18T06:28:23;9.67;;;5.60;;
8260;SDS011;64115;50.170;8.242;2022-12-18T06:30:50;10.67;;;7.00;;
8260;SDS011;64115;50.170;8.242;2022-12-18T06:33:19;12.43;;;7.73;;
8260;SDS011;64115;50.170;8.242;2022-12-18T06:35:46;15.07;;;8.40;;
8260;SDS011;64115;50.170;8.242;2022-12-18T06:38:13;13.93;;;7.57;;
8260;SDS011;64115;50.170;8.242;2022-12-18T06:40:39;8.53;;;5.43;;
8260;SDS011;64115;50.170;8.242;2022-12-18T06:43:06;16.40;;;7.67;;
8260;SDS011;64115;50.170;8.242;2022-12-18T06:45:33;16.00;;;8.40;;
8260;SDS011;64115;50.170;8.242;2022-12-18T06:48:00;12.57;;;6.57;;
8260;SDS011;64115;50.170;8.242;2022-12-18T06:50:29;12.77;;;7.83;;
8260;SDS011;64115;50.170;8.242;2022-12-18T06:52:55;15.73;;;7.97;;
8260;SDS011;64115;50.170;8.242;2022-12-18T06:55:22;14.17;;;8.07;;
8260;SDS011;64115;50.170;8.242;2022-12-18T06:57:49;8.33;;;5.40;;
8260;SDS011;64115;50.170;8.242;2022-12-18T07:00:16;10.60;;;5.23;;
8260;SDS011;64115;50.170;8.242;2022-12-18T07:02:44;11.57;;;5.47;;
8260;SDS011;64115;50.170;8.242;2022-12-18T07:05:10;10.77;;;5.13;;
8260;SDS011;64115;50.170;8.242;2022-12-18T07:07:39;9.73;;;4.40;;
8260;SDS011;64115;50.170;8.242;2022-12-18T07:10:05;12.50;;;6.77;;
8260;SDS011;64115;50.170;8.242;2022-12-18T07:12:32;13.63;;;7.70;;
8260;SDS011;64115;50.170;8.242;2022-12-18T07:14:59;13.03;;;7.23;;
8260;SDS011;64115;50.170;8.242;2022-12-18T07:17:26;13.27;;;7.53;;
8260;SDS011;64115;50.170;8.242;2022-12-18T07:19:54;10.57;;;6.30;;
8260;SDS011;64115;50.170;8.242;2022-12-18T07:22:21;18.10;;;8.40;;
8260;SDS011;64115;50.170;8.242;2022-12-18T07:24:52;20.60;;;7.07;;
8260;SDS011;64115;50.170;8.242;2022-12-18T07:27:20;10.90;;;6.80;;
8260;SDS011;64115;50.170;8.242;2022-12-18T07:29:47;13.33;;;6.27;;
8260;SDS011;64115;50.170;8.242;2022-12-18T07:32:14;12.67;;;6.43;;
8260;SDS011;64115;50.170;8.242;2022-12-18T07:34:41;13.43;;;4.53;;
8260;SDS011;64115;50.170;8.242;2022-12-18T07:37:08;10.07;;;6.67;;
8260;SDS011;64115;50.170;8.242;2022-12-18T07:39:35;9.77;;;5.53;;
8260;SDS011;64115;50.170;8.242;2022-12-18T07:42:03;9.10;;;5.23;;
8260;SDS011;64115;50.170;8.242;2022-12-18T07:44:53;5.73;;;4.67;;
8260;SDS011;64115;50.170;8.242;2022-12-18T07:47:20;10.93;;;5.77;;
8260;SDS011;64115;50.170;8.242;2022-12-18T07:49:46;8.17;;;4.63;;
8260;SDS011;64115;50.170;8.242;2022-12-18T07:52:13;8.00;;;4.97;;
8260;SDS011;64115;50.170;8.242;2022-12-18T07:54:40;8.30;;;5.23;;
8260;SDS011;64115;50.170;8.242;2022-12-18T07:57:08;9.43;;;5.20;;
8260;SDS011;64115;50.170;8.242;2022-12-18T07:59:36;9.27;;;4.80;;
8260;SDS011;64115;50.170;8.242;2022-12-18T08:02:03;12.47;;;6.97;;
8260;SDS011;64115;50.170;8.242;2022-12-18T08:04:30;9.27;;;5.13;;
8260;SDS011;64115;50.170;8.242;2022-12-18T08:07:04;10.47;;;5.50;;
8260;SDS011;64115;50.170;8.242;2022-12-18T08:09:30;9.93;;;6.07;;
8260;SDS011;64115;50.170;8.242;2022-12-18T08:11:57;12.60;;;5.90;;
8260;SDS011;64115;50.170;8.242;2022-12-18T08:14:25;12.23;;;6.17;;
8260;SDS011;64115;50.170;8.242;2022-12-18T08:16:52;10.27;;;6.07;;
8260;SDS011;64115;50.170;8.242;2022-12-18T08:19:19;7.77;;;4.47;;
8260;SDS011;64115;50.170;8.242;2022-12-18T08:21:46;11.57;;;6.80;;
8260;SDS011;64115;50.170;8.242;2022-12-18T08:24:13;7.97;;;5.43;;
8260;SDS011;64115;50.170;8.242;2022-12-18T08:26:39;12.50;;;5.73;;
8260;SDS011;64115;50.170;8.242;2022-12-18T08:29:06;9.40;;;4.90;;
8260;SDS011;64115;50.170;8.242;2022-12-18T08:31:36;10.73;;;6.60;;
8260;SDS011;64115;50.170;8.242;2022-12-18T08:34:03;10.00;;;6.83;;
8260;SDS011;64115;50.170;8.242;2022-12-18T08:36:30;9.03;;;6.70;;
8260;SDS011;64115;50.170;8.242;2022-12-18T08:38:57;12.10;;;7.07;;
8260;SDS011;64115;50.170;8.242;2022-12-18T08:41:24;7.07;;;4.60;;
8260;SDS011;64115;50.170;8.242;2022-12-18T08:43:50;9.63;;;6.07;;
8260;SDS011;64115;50.170;8.242;2022-12-18T08:46:37;11.70;;;6.37;;
8260;SDS011;64115;50.170;8.242;2022-12-18T08:49:06;11.87;;;7.40;;
8260;SDS011;64115;50.170;8.242;2022-12-18T08:51:33;15.17;;;7.93;;
8260;SDS011;64115;50.170;8.242;2022-12-18T08:54:01;11.73;;;6.63;;
8260;SDS011;64115;50.170;8.242;2022-12-18T08:56:28;10.43;;;6.93;;
8260;SDS011;64115;50.170;8.242;2022-12-18T08:58:56;11.20;;;5.93;;
8260;SDS011;64115;50.170;8.242;2022-12-18T09:01:23;12.03;;;7.27;;
8260;SDS011;64115;50.170;8.242;2022-12-18T09:03:52;12.37;;;5.80;;
8260;SDS011;64115;50.170;8.242;2022-12-18T09:06:19;12.60;;;7.03;;
8260;SDS011;64115;50.170;8.242;2022-12-18T09:08:47;11.87;;;7.07;;
8260;SDS011;64115;50.170;8.242;2022-12-18T09:11:15;15.30;;;7.60;;
8260;SDS011;64115;50.170;8.242;2022-12-18T09:13:46;15.80;;;8.33;;
8260;SDS011;64115;50.170;8.242;2022-12-18T09:16:14;12.50;;;7.70;;
8260;SDS011;64115;50.170;8.242;2022-12-18T09:18:41;15.77;;;8.73;;
8260;SDS011;64115;50.170;8.242;2022-12-18T09:21:11;18.00;;;7.83;;
8260;SDS011;64115;50.170;8.242;2022-12-18T09:23:39;9.53;;;6.10;;
8260;SDS011;64115;50.170;8.242;2022-12-18T09:26:06;14.53;;;8.17;;
8260;SDS011;64115;50.170;8.242;2022-12-18T09:28:34;16.43;;;8.30;;
8260;SDS011;64115;50.170;8.242;2022-12-18T09:31:03;16.33;;;9.40;;
8260;SDS011;64115;50.170;8.242;2022-12-18T09:33:32;14.67;;;9.13;;
8260;SDS011;64115;50.170;8.242;2022-12-18T09:36:00;20.87;;;10.43;;
8260;SDS011;64115;50.170;8.242;2022-12-18T09:38:29;21.50;;;11.77;;
8260;SDS011;64115;50.170;8.242;2022-12-18T09:40:57;12.57;;;6.97;;
8260;SDS011;64115;50.170;8.242;2022-12-18T09:43:28;14.27;;;8.47;;
8260;SDS011;64115;50.170;8.242;2022-12-18T09:46:03;16.70;;;8.17;;
8260;SDS011;64115;50.170;8.242;2022-12-18T09:48:34;11.63;;;7.47;;
8260;SDS011;64115;50.170;8.242;2022-12-18T09:51:05;6.83;;;5.20;;
8260;SDS011;64115;50.170;8.242;2022-12-18T09:53:39;22.03;;;8.53;;
8260;SDS011;64115;50.170;8.242;2022-12-18T09:56:12;13.97;;;6.50;;
8260;SDS011;64115;50.170;8.242;2022-12-18T09:58:44;11.83;;;6.47;;
8260;SDS011;64115;50.170;8.242;2022-12-18T10:01:16;15.33;;;9.30;;
8260;SDS011;64115;50.170;8.242;2022-12-18T10:03:47;18.27;;;9.73;;
8260;SDS011;64115;50.170;8.242;2022-12-18T10:06:15;15.03;;;8.67;;
8260;SDS011;64115;50.170;8.242;2022-12-18T10:08:51;13.03;;;8.03;;
8260;SDS011;64115;50.170;8.242;2022-12-18T10:11:28;13.00;;;6.87;;
8260;SDS011;64115;50.170;8.242;2022-12-18T10:14:06;9.10;;;6.03;;
8260;SDS011;64115;50.170;8.242;2022-12-18T10:16:39;12.87;;;7.17;;
8260;SDS011;64115;50.170;8.242;2022-12-18T10:19:18;16.97;;;7.90;;
8260;SDS011;64115;50.170;8.242;2022-12-18T10:21:57;13.67;;;8.43;;
8260;SDS011;64115;50.170;8.242;2022-12-18T10:24:30;16.57;;;9.37;;
8260;SDS011;64115;50.170;8.242;2022-12-18T10:27:08;24.37;;;11.57;;
8260;SDS011;64115;50.170;8.242;2022-12-18T10:29:40;15.80;;;7.83;;
8260;SDS011;64115;50.170;8.242;2022-12-18T10:32:09;14.17;;;8.60;;
8260;SDS011;64115;50.170;8.242;2022-12-18T10:34:41;16.77;;;9.53;;
8260;SDS011;64115;50.170;8.242;2022-12-18T10:37:11;17.37;;;9.57;;
8260;SDS011;64115;50.170;8.242;2022-12-18T10:39:45;25.53;;;13.10;;
8260;SDS011;64115;50.170;8.242;2022-12-18T10:42:16;19.20;;;10.97;;
8260;SDS011;64115;50.170;8.242;2022-12-18T10:44:44;22.50;;;12.30;;
8260;SDS011;64115;50.170;8.242;2022-12-18T10:47:12;19.57;;;10.70;;
8260;SDS011;64115;50.170;8.242;2022-12-18T10:49:45;22.27;;;12.30;;
8260;SDS011;64115;50.170;8.242;2022-12-18T10:52:16;18.10;;;11.07;;
8260;SDS011;64115;50.170;8.242;2022-12-18T10:54:48;17.30;;;9.30;;
8260;SDS011;64115;50.170;8.242;2022-12-18T10:57:17;17.30;;;10.63;;
8260;SDS011;64115;50.170;8.242;2022-12-18T10:59:59;20.13;;;12.07;;
8260;SDS011;64115;50.170;8.242;2022-12-18T11:02:46;26.33;;;11.93;;
8260;SDS011;64115;50.170;8.242;2022-12-18T11:05:22;29.48;;;18.42;;
8260;SDS011;64115;50.170;8.242;2022-12-18T11:07:51;24.10;;;14.07;;
8260;SDS011;64115;50.170;8.242;2022-12-18T11:10:21;23.20;;;13.10;;
8260;SDS011;64115;50.170;8.242;2022-12-18T11:12:49;24.87;;;12.13;;
8260;SDS011;64115;50.170;8.242;2022-12-18T11:15:16;19.77;;;11.53;;
8260;SDS011;64115;50.170;8.242;2022-12-18T11:17:47;17.60;;;10.33;;
8260;SDS011;64115;50.170;8.242;2022-12-18T11:20:19;19.33;;;11.40;;
8260;SDS011;64115;50.170;8.242;2022-12-18T11:22:55;25.93;;;13.87;;
8260;SDS011;64115;50.170;8.242;2022-12-18T11:25:25;23.90;;;13.00;;
8260;SDS011;64115;50.170;8.242;2022-12-18T11:27:55;24.73;;;12.20;;
8260;SDS011;64115;50.170;8.242;2022-12-18T11:30:25;22.33;;;12.53;;
8260;SDS011;64115;50.170;8.242;2022-12-18T11:32:54;25.77;;;13.20;;
8260;SDS011;64115;50.170;8.242;2022-12-18T11:35:28;25.83;;;13.67;;
8260;SDS011;64115;50.170;8.242;2022-12-18T11:38:02;25.47;;;13.43;;
8260;SDS011;64115;50.170;8.242;2022-12-18T11:40:37;25.17;;;13.87;;
8260;SDS011;64115;50.170;8.242;2022-12-18T11:43:09;21.80;;;12.30;;
8260;SDS011;64115;50.170;8.242;2022-12-18T11:45:41;25.87;;;12.53;;
8260;SDS011;64115;50.170;8.242;2022-12-18T11:48:14;29.27;;;14.67;;
8260;SDS011;64115;50.170;8.242;2022-12-18T11:50:46;21.40;;;10.53;;
8260;SDS011;64115;50.170;8.242;2022-12-18T11:53:16;27.10;;;13.53;;
8260;SDS011;64115;50.170;8.242;2022-12-18T11:55:49;26.57;;;14.93;;
8260;SDS011;64115;50.170;8.242;2022-12-18T11:58:26;27.17;;;13.00;;
8260;SDS011;64115;50.170;8.242;2022-12-18T12:01:05;29.27;;;15.53;;
8260;SDS011;64115;50.170;8.242;2022-12-18T12:03:45;27.40;;;14.60;;
8260;SDS011;64115;50.170;8.242;2022-12-18T12:06:20;30.23;;;15.03;;
8260;SDS011;64115;50.170;8.242;2022-12-18T12:08:56;30.83;;;15.93;;
8260;SDS011;64115;50.170;8.242;2022-12-18T12:11:35;22.93;;;12.63;;
8260;SDS011;64115;50.170;8.242;2022-12-18T12:14:16;29.90;;;15.17;;
8260;SDS011;64115;50.170;8.242;2022-12-18T12:16:56;27.77;;;14.83;;
8260;SDS011;64115;50.170;8.242;2022-12-18T12:19:34;26.60;;;13.47;;
8260;SDS011;64115;50.170;8.242;2022-12-18T12:22:10;31.73;;;15.40;;
8260;SDS011;64115;50.170;8.242;2022-12-18T12:24:48;24.27;;;12.93;;
8260;SDS011;64115;50.170;8.242;2022-12-18T12:27:25;23.43;;;12.07;;
8260;SDS011;64115;50.170;8.242;2022-12-18T12:30:03;24.07;;;13.47;;
8260;SDS011;64115;50.170;8.242;2022-12-18T12:32:36;25.03;;;13.07;;
8260;SDS011;64115;50.170;8.242;2022-12-18T12:35:14;22.50;;;10.73;;
8260;SDS011;64115;50.170;8.242;2022-12-18T12:37:53;31.33;;;15.23;;
8260;SDS011;64115;50.170;8.242;2022-12-18T12:40:29;27.07;;;11.77;;
8260;SDS011;64115;50.170;8.242;2022-12-18T12:43:02;33.10;;;15.33;;
8260;SDS011;64115;50.170;8.242;2022-12-18T12:45:40;32.27;;;15.47;;
8260;SDS011;64115;50.170;8.242;2022-12-18T12:48:13;31.43;;;15.57;;
8260;SDS011;64115;50.170;8.242;2022-12-18T12:50:44;27.53;;;14.33;;
8260;SDS011;64115;50.170;8.242;2022-12-18T12:53:15;30.27;;;15.77;;
8260;SDS011;64115;50.170;8.242;2022-12-18T12:55:48;30.20;;;15.43;;
8260;SDS011;64115;50.170;8.242;2022-12-18T12:58:18;30.87;;;15.67;;
8260;SDS011;64115;50.170;8.242;2022-12-18T13:00:59;32.67;;;17.17;;
8260;SDS011;64115;50.170;8.242;2022-12-18T13:03:35;36.60;;;17.93;;
8260;SDS011;64115;50.170;8.242;2022-12-18T13:06:11;33.73;;;17.40;;
8260;SDS011;64115;50.170;8.242;2022-12-18T13:08:55;28.73;;;14.43;;
8260;SDS011;64115;50.170;8.242;2022-12-18T13:11:28;31.57;;;14.10;;
8260;SDS011;64115;50.170;8.242;2022-12-18T13:14:21;38.80;;;16.60;;
8260;SDS011;64115;50.170;8.242;2022-12-18T13:22:46;23.40;;;12.13;;
8260;SDS011;64115;50.170;8.242;2022-12-18T13:25:34;27.00;;;14.07;;
8260;SDS011;64115;50.170;8.242;2022-12-18T13:28:06;23.27;;;9.83;;
8260;SDS011;64115;50.170;8.242;2022-12-18T13:30:54;26.40;;;11.17;;
8260;SDS011;64115;50.170;8.242;2022-12-18T13:36:29;29.83;;;14.13;;
8260;SDS011;64115;50.170;8.242;2022-12-18T13:48:21;28.83;;;13.20;;
8260;SDS011;64115;50.170;8.242;2022-12-18T13:50:52;36.57;;;15.47;;
8260;SDS011;64115;50.170;8.242;2022-12-18T13:53:24;36.00;;;15.07;;
8260;SDS011;64115;50.170;8.242;2022-12-18T13:55:53;29.50;;;13.23;;
8260;SDS011;64115;50.170;8.242;2022-12-18T13:58:20;36.73;;;15.67;;
8260;SDS011;64115;50.170;8.242;2022-12-18T14:00:47;34.07;;;16.43;;
8260;SDS011;64115;50.170;8.242;2022-12-18T14:03:16;32.83;;;15.33;;
8260;SDS011;64115;50.170;8.242;2022-12-18T14:05:47;27.53;;;13.07;;
8260;SDS011;64115;50.170;8.242;2022-12-18T14:08:20;36.33;;;15.33;;
8260;SDS011;64115;50.170;8.242;2022-12-18T14:10:51;31.20;;;14.87;;
8260;SDS011;64115;50.170;8.242;2022-12-18T14:13:19;33.70;;;14.87;;
8260;SDS011;64115;50.170;8.242;2022-12-18T14:15:50;20.13;;;10.17;;
8260;SDS011;64115;50.170;8.242;2022-12-18T14:18:19;29.10;;;14.63;;
8260;SDS011;64115;50.170;8.242;2022-12-18T14:20:49;38.77;;;16.77;;
8260;SDS011;64115;50.170;8.242;2022-12-18T14:23:28;26.80;;;13.30;;
8260;SDS011;64115;50.170;8.242;2022-12-18T14:25:56;16.20;;;9.37;;
8260;SDS011;64115;50.170;8.242;2022-12-18T14:28:23;37.70;;;11.67;;
8260;SDS011;64115;50.170;8.242;2022-12-18T14:30:51;35.07;;;15.17;;
8260;SDS011;64115;50.170;8.242;2022-12-18T14:33:20;39.90;;;16.63;;
8260;SDS011;64115;50.170;8.242;2022-12-18T14:35:56;31.00;;;13.50;;
8260;SDS011;64115;50.170;8.242;2022-12-18T14:38:28;28.23;;;12.63;;
8260;SDS011;64115;50.170;8.242;2022-12-18T14:40:57;23.17;;;11.73;;
8260;SDS011;64115;50.170;8.242;2022-12-18T14:43:24;31.03;;;14.20;;
8260;SDS011;64115;50.170;8.242;2022-12-18T14:45:53;22.97;;;10.90;;
8260;SDS011;64115;50.170;8.242;2022-12-18T14:48:21;26.67;;;11.37;;
8260;SDS011;64115;50.170;8.242;2022-12-18T14:50:56;26.93;;;13.90;;
8260;SDS011;64115;50.170;8.242;2022-12-18T14:53:39;14.47;;;7.70;;
8260;SDS011;64115;50.170;8.242;2022-12-18T14:56:13;17.93;;;8.70;;
8260;SDS011;64115;50.170;8.242;2022-12-18T14:58:46;31.07;;;12.53;;
8260;SDS011;64115;50.170;8.242;2022-12-18T15:01:18;41.77;;;15.43;;
8260;SDS011;64115;50.170;8.242;2022-12-18T15:03:47;30.97;;;13.30;;
8260;SDS011;64115;50.170;8.242;2022-12-18T15:06:16;31.43;;;12.93;;
8260;SDS011;64115;50.170;8.242;2022-12-18T15:08:49;29.60;;;11.33;;
8260;SDS011;64115;50.170;8.242;2022-12-18T15:11:26;31.60;;;12.73;;
8260;SDS011;64115;50.170;8.242;2022-12-18T15:13:54;34.77;;;13.57;;
8260;SDS011;64115;50.170;8.242;2022-12-18T15:16:23;24.33;;;11.07;;
8260;SDS011;64115;50.170;8.242;2022-12-18T15:18:50;22.73;;;10.57;;
8260;SDS011;64115;50.170;8.242;2022-12-18T15:21:19;24.93;;;11.17;;